createdAt,value
2022-12-11T00:01:28.189Z,99.90
2022-12-11T00:03:57.893Z,99.90
2022-12-11T00:06:31.053Z,99.90
2022-12-11T00:08:58.427Z,99.90
2022-12-11T00:11:27.813Z,99.90
2022-12-11T00:13:57.211Z,99.90
2022-12-11T00:16:29.789Z,99.90
2022-12-11T00:18:59.552Z,99.90
2022-12-11T00:21:32.273Z,99.90
2022-12-11T00:23:59.609Z,99.90
2022-12-11T00:26:27.315Z,99.90
2022-12-11T00:28:57.891Z,99.90
2022-12-11T00:31:25.678Z,99.90
2022-12-11T00:33:55.208Z,99.90
2022-12-11T00:36:29.131Z,99.90
2022-12-11T00:38:56.551Z,99.90
2022-12-11T00:41:26.565Z,99.90
2022-12-11T00:43:56.067Z,99.90
2022-12-11T00:46:23.455Z,99.90
2022-12-11T00:48:51.472Z,99.90
2022-12-11T00:51:20.909Z,99.90
2022-12-11T00:53:48.182Z,99.90
2022-12-11T00:56:22.966Z,99.90
2022-12-11T00:58:52.614Z,99.90
2022-12-11T01:01:26.374Z,99.90
2022-12-11T01:03:54.311Z,99.90
2022-12-11T01:06:24.768Z,99.90
2022-12-11T01:09:12.407Z,99.90
2022-12-11T01:11:41.504Z,99.90
2022-12-11T01:14:13.085Z,99.90
2022-12-11T01:16:40.429Z,99.90
2022-12-11T01:19:09.809Z,99.90
2022-12-11T01:21:39.229Z,99.90
2022-12-11T01:24:07.140Z,99.90
2022-12-11T01:26:34.368Z,99.90
2022-12-11T01:29:02.051Z,99.90
2022-12-11T01:31:32.099Z,99.90
2022-12-11T01:34:04.106Z,99.90
2022-12-11T01:36:36.000Z,99.90
2022-12-11T01:39:06.510Z,99.90
2022-12-11T01:41:33.834Z,99.90
2022-12-11T01:44:19.120Z,99.90
2022-12-11T01:46:48.581Z,99.90
2022-12-11T01:49:19.426Z,99.90
2022-12-11T01:51:59.665Z,99.90
2022-12-11T01:54:29.984Z,99.90
2022-12-11T01:57:01.909Z,99.90
2022-12-11T01:59:36.075Z,99.90
2022-12-11T02:02:22.570Z,99.90
2022-12-11T02:04:52.510Z,99.90
2022-12-11T02:07:22.364Z,99.90
2022-12-11T02:09:50.747Z,99.90
2022-12-11T02:12:17.894Z,99.90
2022-12-11T02:15:04.800Z,99.90
2022-12-11T02:17:41.086Z,99.90
2022-12-11T02:20:22.189Z,99.90
2022-12-11T02:23:27.576Z,99.90
2022-12-11T02:26:07.148Z,99.90
2022-12-11T02:29:08.232Z,99.90
2022-12-11T02:31:38.848Z,99.90
2022-12-11T02:34:30.769Z,99.90
2022-12-11T02:37:02.121Z,99.90
2022-12-11T02:39:33.843Z,99.90
2022-12-11T02:42:02.609Z,99.90
2022-12-11T02:44:36.816Z,99.90
2022-12-11T02:47:07.225Z,99.90
2022-12-11T02:49:37.828Z,99.90
2022-12-11T02:52:06.798Z,99.90
2022-12-11T02:54:38.041Z,99.90
2022-12-11T02:57:23.921Z,99.90
2022-12-11T02:59:53.754Z,99.90
2022-12-11T03:02:21.160Z,99.90
2022-12-11T03:04:50.684Z,99.90
2022-12-11T03:07:31.820Z,99.90
2022-12-11T03:09:59.166Z,99.90
2022-12-11T03:12:31.772Z,99.90
2022-12-11T03:15:03.052Z,99.90
2022-12-11T03:17:54.565Z,99.90
2022-12-11T03:20:43.604Z,99.90
2022-12-11T03:23:37.466Z,99.90
2022-12-11T03:26:08.598Z,99.90
2022-12-11T03:28:41.694Z,99.90
2022-12-11T03:31:24.232Z,99.90
2022-12-11T03:33:56.266Z,99.90
2022-12-11T03:36:36.261Z,99.90
2022-12-11T03:39:10.775Z,99.90
2022-12-11T03:41:39.885Z,99.90
2022-12-11T03:44:10.203Z,99.90
2022-12-11T03:46:40.390Z,99.90
2022-12-11T03:49:15.415Z,99.90
2022-12-11T03:51:50.744Z,99.90
2022-12-11T03:54:21.131Z,99.90
2022-12-11T03:56:54.032Z,99.90
2022-12-11T03:59:21.317Z,99.90
2022-12-11T04:01:50.869Z,99.90
2022-12-11T04:04:20.360Z,99.90
2022-12-11T04:06:48.213Z,99.90
2022-12-11T04:09:18.167Z,99.90
2022-12-11T04:11:47.567Z,99.90
2022-12-11T04:14:35.581Z,99.90
2022-12-11T04:17:05.810Z,99.90
2022-12-11T04:19:51.726Z,99.90
2022-12-11T04:22:40.648Z,99.90
2022-12-11T04:25:11.381Z,99.90
2022-12-11T04:27:50.764Z,99.90
2022-12-11T04:30:23.683Z,99.90
2022-12-11T04:32:51.810Z,99.90
2022-12-11T04:35:22.091Z,99.90
2022-12-11T04:37:49.516Z,99.90
2022-12-11T04:40:21.249Z,99.90
2022-12-11T04:42:48.716Z,99.90
2022-12-11T04:45:18.724Z,99.90
2022-12-11T04:47:48.075Z,99.90
2022-12-11T04:50:16.049Z,99.90
2022-12-11T04:52:45.883Z,99.90
2022-12-11T04:55:13.549Z,99.90
2022-12-11T04:57:41.190Z,99.90
2022-12-11T05:00:12.044Z,99.90
2022-12-11T05:02:42.765Z,99.90
2022-12-11T05:05:14.300Z,99.90
2022-12-11T05:07:42.039Z,99.90
2022-12-11T05:10:10.275Z,99.90
2022-12-11T05:12:40.039Z,99.90
2022-12-11T05:15:08.357Z,99.90
2022-12-11T05:17:38.360Z,99.90
2022-12-11T05:20:06.593Z,99.90
2022-12-11T05:22:33.851Z,99.90
2022-12-11T05:25:01.168Z,99.90
2022-12-11T05:27:31.005Z,99.90
2022-12-11T05:29:59.740Z,99.90
2022-12-11T05:32:27.870Z,99.90
2022-12-11T05:34:55.510Z,99.90
2022-12-11T05:37:22.803Z,99.90
2022-12-11T05:39:50.061Z,99.90
2022-12-11T05:42:17.765Z,99.90
2022-12-11T05:44:53.022Z,99.90
2022-12-11T05:47:21.077Z,99.90
2022-12-11T05:49:50.927Z,99.90
2022-12-11T05:52:23.663Z,99.90
2022-12-11T05:54:51.326Z,99.90
2022-12-11T05:57:19.061Z,99.90
2022-12-11T05:59:48.883Z,99.90
2022-12-11T06:02:16.788Z,99.90
2022-12-11T06:04:51.244Z,99.90
2022-12-11T06:07:18.492Z,99.90
2022-12-11T06:09:45.833Z,99.90
2022-12-11T06:12:13.052Z,99.90
2022-12-11T06:14:40.997Z,99.90
2022-12-11T06:17:11.185Z,99.90
2022-12-11T06:19:40.633Z,99.90
2022-12-11T06:22:10.395Z,99.90
2022-12-11T06:24:37.660Z,99.90
2022-12-11T06:27:04.873Z,99.90
2022-12-11T06:29:32.130Z,99.90
2022-12-11T06:32:02.208Z,99.90
2022-12-11T06:34:30.034Z,99.90
2022-12-11T06:36:59.992Z,99.90
2022-12-11T06:39:27.166Z,99.90
2022-12-11T06:41:57.032Z,99.90
2022-12-11T06:44:25.060Z,99.90
2022-12-11T06:46:54.466Z,99.90
2022-12-11T06:49:21.803Z,99.90
2022-12-11T06:51:51.978Z,99.90
2022-12-11T06:54:19.648Z,99.90
2022-12-11T06:56:49.036Z,99.90
2022-12-11T06:59:16.230Z,99.90
2022-12-11T07:01:45.825Z,99.90
2022-12-11T07:04:15.523Z,99.90
2022-12-11T07:06:43.282Z,99.90
2022-12-11T07:09:13.181Z,99.90
2022-12-11T07:11:43.298Z,99.90
2022-12-11T07:14:10.687Z,99.90
2022-12-11T07:16:38.435Z,99.90
2022-12-11T07:19:08.213Z,99.90
2022-12-11T07:21:38.153Z,99.90
2022-12-11T07:24:08.360Z,99.90
2022-12-11T07:26:38.358Z,99.90
2022-12-11T07:29:05.802Z,99.90
2022-12-11T07:31:33.090Z,99.90
2022-12-11T07:34:05.770Z,99.90
2022-12-11T07:36:34.265Z,99.90
2022-12-11T07:39:04.303Z,99.90
2022-12-11T07:41:31.916Z,99.90
2022-12-11T07:44:01.059Z,99.90
2022-12-11T07:46:33.463Z,99.90
2022-12-11T07:49:04.182Z,99.90
2022-12-11T07:51:35.728Z,99.90
2022-12-11T07:54:09.034Z,99.90
2022-12-11T07:56:36.201Z,99.90
2022-12-11T07:59:07.135Z,99.90
2022-12-11T08:01:36.540Z,99.90
2022-12-11T08:04:06.183Z,99.90
2022-12-11T08:06:36.056Z,99.90
2022-12-11T08:09:06.989Z,99.90
2022-12-11T08:11:35.181Z,99.90
2022-12-11T08:14:03.175Z,99.90
2022-12-11T08:16:33.524Z,99.90
2022-12-11T08:19:03.649Z,99.90
2022-12-11T08:21:31.389Z,99.90
2022-12-11T08:23:59.138Z,99.90
2022-12-11T08:26:29.617Z,99.90
2022-12-11T08:28:59.252Z,99.90
2022-12-11T08:31:27.116Z,99.90
2022-12-11T08:33:56.976Z,99.90
2022-12-11T08:36:24.911Z,99.90
2022-12-11T08:38:56.927Z,99.90
2022-12-11T08:41:27.482Z,99.90
2022-12-11T08:43:58.662Z,99.90
2022-12-11T08:46:31.676Z,99.90
2022-12-11T08:49:00.318Z,99.90
2022-12-11T08:51:29.509Z,99.90
2022-12-11T08:53:58.745Z,99.90
2022-12-11T08:56:30.137Z,99.90
2022-12-11T08:59:00.944Z,99.90
2022-12-11T09:01:29.345Z,99.90
2022-12-11T09:03:57.168Z,99.90
2022-12-11T09:06:26.561Z,99.90
2022-12-11T09:08:54.367Z,99.90
2022-12-11T09:11:30.139Z,99.90
2022-12-11T09:14:02.150Z,99.90
2022-12-11T09:16:33.670Z,99.90
2022-12-11T09:19:06.649Z,99.90
2022-12-11T09:21:33.908Z,99.90
2022-12-11T09:24:03.925Z,99.90
2022-12-11T09:26:31.865Z,99.90
2022-12-11T09:28:59.784Z,99.90
2022-12-11T09:31:31.585Z,99.90
2022-12-11T09:34:01.238Z,99.90
2022-12-11T09:36:29.564Z,99.90
2022-12-11T09:39:01.166Z,99.90
2022-12-11T09:41:38.919Z,99.90
2022-12-11T09:44:24.706Z,99.90
2022-12-11T09:46:54.466Z,99.90
2022-12-11T09:49:41.129Z,99.90
2022-12-11T09:52:32.241Z,99.90
2022-12-11T09:55:15.005Z,99.90
2022-12-11T09:57:57.846Z,99.90
2022-12-11T10:00:43.552Z,99.90
2022-12-11T10:03:34.916Z,99.90
2022-12-11T10:06:24.461Z,99.90
2022-12-11T10:09:02.700Z,99.90
2022-12-11T10:11:56.308Z,99.90
2022-12-11T10:14:42.746Z,99.90
2022-12-11T10:17:12.675Z,99.90
2022-12-11T10:19:45.801Z,99.90
2022-12-11T10:22:23.442Z,99.90
2022-12-11T10:25:11.893Z,99.90
2022-12-11T10:27:41.071Z,99.90
2022-12-11T10:30:24.499Z,99.90
2022-12-11T10:33:06.642Z,99.90
2022-12-11T10:35:41.978Z,99.90
2022-12-11T10:38:31.011Z,99.90
2022-12-11T10:41:06.197Z,99.90
2022-12-11T10:43:43.282Z,99.90
2022-12-11T10:46:22.842Z,99.90
2022-12-11T10:48:59.263Z,99.90
2022-12-11T10:51:39.737Z,99.90
2022-12-11T10:54:25.991Z,99.90
2022-12-11T10:56:54.821Z,99.90
2022-12-11T10:59:34.917Z,99.90
2022-12-11T11:02:07.210Z,99.90
2022-12-11T11:04:39.488Z,99.90
2022-12-11T11:07:16.910Z,99.90
2022-12-11T11:09:44.458Z,99.90
2022-12-11T11:12:24.354Z,99.90
2022-12-11T11:15:03.508Z,99.90
2022-12-11T11:17:35.162Z,99.90
2022-12-11T11:20:13.467Z,99.90
2022-12-11T11:22:46.102Z,99.90
2022-12-11T11:25:27.559Z,99.90
2022-12-11T11:28:01.678Z,99.90
2022-12-11T11:30:30.914Z,99.90
2022-12-11T11:33:14.541Z,99.90
2022-12-11T11:35:51.107Z,99.90
2022-12-11T11:38:21.296Z,99.90
2022-12-11T11:41:11.559Z,99.90
2022-12-11T11:43:51.307Z,99.90
2022-12-11T11:46:30.833Z,99.90
2022-12-11T11:49:18.122Z,99.90
2022-12-11T11:51:58.030Z,99.90
2022-12-11T11:54:52.596Z,99.90
2022-12-11T11:57:47.726Z,99.90
2022-12-11T12:00:22.036Z,97.50
2022-12-11T12:02:56.797Z,96.80
2022-12-11T12:05:31.693Z,93.70
2022-12-11T12:08:20.853Z,93.60
2022-12-11T12:11:16.087Z,93.60
2022-12-11T12:14:22.539Z,92.90
2022-12-11T12:17:06.597Z,93.70
2022-12-11T12:19:36.850Z,93.10
2022-12-11T12:22:28.046Z,91.80
2022-12-11T12:25:14.147Z,90.80
2022-12-11T12:28:08.054Z,90.70
2022-12-11T12:31:06.457Z,89.30
2022-12-11T12:34:01.790Z,87.40
2022-12-11T12:37:03.349Z,86.60
2022-12-11T12:39:30.516Z,82.90
2022-12-11T12:42:15.357Z,83.50
2022-12-11T12:45:14.232Z,85.30
2022-12-11T12:47:53.206Z,85.70
2022-12-11T12:50:25.159Z,87.50
2022-12-11T12:52:55.037Z,88.80
2022-12-11T12:55:25.841Z,90.20
2022-12-11T12:58:00.480Z,91.10
2022-12-11T13:00:32.511Z,91.90
2022-12-11T13:03:21.606Z,92.50
2022-12-11T13:06:28.422Z,93.50
2022-12-11T13:08:59.020Z,93.90
2022-12-11T13:11:34.851Z,94.40
2022-12-11T13:14:05.346Z,94.70
2022-12-11T13:16:46.950Z,95.10
2022-12-11T13:19:23.281Z,95.60
2022-12-11T13:22:12.251Z,96.30
2022-12-11T13:25:01.510Z,96.80
2022-12-11T13:27:44.271Z,96.70
2022-12-11T13:30:14.566Z,97.10
2022-12-11T13:32:57.047Z,97.50
2022-12-11T13:35:26.935Z,98.40
2022-12-11T13:37:56.612Z,99.00
2022-12-11T13:40:30.041Z,99.60
2022-12-11T13:42:59.877Z,99.90
2022-12-11T13:45:57.113Z,99.90
2022-12-11T13:48:42.524Z,99.90
2022-12-11T13:51:20.176Z,99.90
2022-12-11T13:53:47.977Z,99.90
2022-12-11T13:56:22.524Z,99.90
2022-12-11T13:58:51.952Z,99.90
2022-12-11T14:01:28.622Z,99.90
2022-12-11T14:04:17.649Z,99.90
2022-12-11T14:06:45.885Z,99.90
2022-12-11T14:09:23.053Z,99.90
2022-12-11T14:11:56.586Z,99.90
2022-12-11T14:14:30.980Z,99.90
2022-12-11T14:16:58.470Z,99.90
2022-12-11T14:19:28.242Z,99.90
2022-12-11T14:22:04.103Z,99.90
2022-12-11T14:24:37.109Z,99.90
2022-12-11T14:27:06.527Z,99.90
2022-12-11T14:29:36.813Z,99.90
2022-12-11T14:32:06.692Z,99.90
2022-12-11T14:34:41.720Z,99.90
2022-12-11T14:37:09.482Z,99.90
2022-12-11T14:40:08.931Z,99.90
2022-12-11T14:43:01.730Z,99.90
2022-12-11T14:45:41.029Z,99.90
2022-12-11T14:48:19.194Z,99.90
2022-12-11T14:50:55.457Z,99.90
2022-12-11T14:53:35.927Z,99.90
2022-12-11T14:56:12.018Z,99.90
2022-12-11T14:58:52.995Z,99.90
2022-12-11T15:01:33.438Z,99.90
2022-12-11T15:04:18.602Z,99.90
2022-12-11T15:06:51.065Z,99.90
2022-12-11T15:09:23.132Z,99.90
2022-12-11T15:12:01.217Z,99.90
2022-12-11T15:14:29.635Z,99.90
2022-12-11T15:16:57.713Z,99.90
2022-12-11T15:19:33.071Z,99.90
2022-12-11T15:22:06.923Z,99.90
2022-12-11T15:24:41.856Z,99.90
2022-12-11T15:27:39.432Z,99.90
2022-12-11T15:30:36.443Z,99.90
2022-12-11T15:33:09.854Z,99.90
2022-12-11T15:35:38.435Z,99.90
2022-12-11T15:38:06.227Z,99.90
2022-12-11T15:40:35.903Z,99.90
2022-12-11T15:43:06.197Z,99.90
2022-12-11T15:45:36.444Z,99.90
2022-12-11T15:48:03.802Z,99.90
2022-12-11T15:50:30.992Z,99.90
2022-12-11T15:53:00.375Z,99.90
2022-12-11T15:55:35.069Z,99.90
2022-12-11T15:58:06.271Z,99.90
2022-12-11T16:00:34.078Z,99.90
2022-12-11T16:03:03.515Z,99.90
2022-12-11T16:05:31.291Z,99.90
2022-12-11T16:08:00.907Z,99.90
2022-12-11T16:10:28.475Z,99.90
2022-12-11T16:12:59.690Z,99.90
2022-12-11T16:15:30.243Z,99.90
2022-12-11T16:18:06.121Z,99.90
2022-12-11T16:20:34.172Z,99.90
2022-12-11T16:35:32.634Z,99.90
2022-12-11T16:38:02.135Z,99.90
2022-12-11T16:40:29.919Z,99.90
2022-12-11T16:42:59.655Z,99.90
2022-12-11T16:45:28.166Z,99.90
2022-12-11T16:47:55.464Z,99.90
2022-12-11T16:50:23.661Z,99.90
2022-12-11T16:52:53.055Z,99.90
2022-12-11T16:55:23.429Z,99.90
2022-12-11T16:57:51.170Z,99.90
2022-12-11T17:00:18.497Z,99.90
2022-12-11T17:02:48.550Z,99.90
2022-12-11T17:05:18.915Z,99.90
2022-12-11T17:07:46.395Z,99.90
2022-12-11T17:10:16.371Z,99.90
2022-12-11T17:12:44.268Z,99.90
2022-12-11T17:15:12.346Z,99.90
2022-12-11T17:17:43.377Z,99.90
2022-12-11T17:20:11.279Z,99.90
2022-12-11T17:22:42.236Z,99.90
2022-12-11T17:25:10.077Z,99.90
2022-12-11T17:27:38.529Z,99.90
2022-12-11T17:30:08.773Z,99.90
2022-12-11T17:32:41.079Z,99.90
2022-12-11T17:35:12.221Z,99.90
2022-12-11T17:37:39.677Z,99.90
2022-12-11T17:40:07.853Z,99.90
2022-12-11T17:42:39.587Z,99.90
2022-12-11T17:45:07.506Z,99.90
2022-12-11T17:47:34.894Z,99.90
2022-12-11T17:50:02.637Z,99.90
2022-12-11T17:52:34.947Z,99.90
2022-12-11T17:55:05.282Z,99.90
2022-12-11T17:57:32.746Z,99.90
2022-12-11T18:00:04.772Z,99.90
2022-12-11T18:02:34.615Z,99.90
2022-12-11T18:05:02.292Z,99.90
2022-12-11T18:07:29.574Z,99.90
2022-12-11T18:09:59.800Z,99.90
2022-12-11T18:12:30.974Z,99.90
2022-12-11T18:15:02.343Z,99.90
2022-12-11T18:17:36.690Z,99.90
2022-12-11T18:20:05.201Z,99.90
2022-12-11T18:22:32.952Z,99.90
2022-12-11T18:25:07.878Z,99.90
2022-12-11T18:27:39.779Z,99.90
2022-12-11T18:30:10.000Z,99.90
2022-12-11T18:32:40.581Z,99.90
2022-12-11T18:35:09.756Z,99.90
2022-12-11T18:37:38.548Z,99.90
2022-12-11T18:40:07.247Z,99.90
2022-12-11T18:42:37.351Z,99.90
2022-12-11T18:45:07.388Z,99.90
2022-12-11T18:47:37.323Z,99.90
2022-12-11T18:50:08.492Z,99.90
2022-12-11T18:52:35.954Z,99.90
2022-12-11T18:55:05.960Z,99.90
2022-12-11T18:57:33.334Z,99.90
2022-12-11T19:00:07.372Z,99.90
2022-12-11T19:02:35.502Z,99.90
2022-12-11T19:05:05.401Z,99.90
2022-12-11T19:07:32.763Z,99.90
2022-12-11T19:10:00.078Z,99.90
2022-12-11T19:12:27.389Z,99.90
2022-12-11T19:14:54.660Z,99.90
2022-12-11T19:17:21.921Z,99.90
2022-12-11T19:19:49.605Z,99.90
2022-12-11T19:22:16.860Z,99.90
2022-12-11T19:24:44.071Z,99.90
2022-12-11T19:27:16.874Z,99.90
2022-12-11T19:29:44.170Z,99.90
2022-12-11T19:32:11.511Z,99.90
2022-12-11T19:34:39.316Z,99.90
2022-12-11T19:37:06.816Z,99.90
2022-12-11T19:39:37.780Z,99.90
2022-12-11T19:42:07.546Z,99.90
2022-12-11T19:44:37.943Z,99.90
2022-12-11T19:47:09.943Z,99.90
2022-12-11T19:49:37.268Z,99.90
2022-12-11T19:52:07.109Z,99.90
2022-12-11T19:54:34.900Z,99.90
2022-12-11T19:57:02.213Z,99.90
2022-12-11T19:59:31.844Z,99.90
2022-12-11T20:01:59.688Z,99.90
2022-12-11T20:04:27.062Z,99.90
2022-12-11T20:06:59.041Z,99.90
2022-12-11T20:09:26.835Z,99.90
2022-12-11T20:11:56.235Z,99.90
2022-12-11T20:14:25.841Z,99.90
2022-12-11T20:17:10.907Z,99.90
2022-12-11T20:19:41.016Z,99.90
2022-12-11T20:22:10.532Z,99.90
2022-12-11T20:24:38.310Z,99.90
2022-12-11T20:27:08.877Z,99.90
2022-12-11T20:29:38.922Z,99.90
2022-12-11T20:32:11.304Z,99.90
2022-12-11T20:34:41.284Z,99.90
2022-12-11T20:37:08.665Z,99.90
2022-12-11T20:39:39.062Z,99.90
2022-12-11T20:42:08.448Z,99.90
2022-12-11T20:44:36.151Z,99.90
2022-12-11T20:47:06.729Z,99.90
2022-12-11T20:49:36.561Z,99.90
2022-12-11T20:52:04.419Z,99.90
2022-12-11T20:54:32.499Z,99.90
2022-12-11T20:56:59.880Z,99.90
2022-12-11T20:59:27.799Z,99.90
2022-12-11T21:01:55.830Z,99.90
2022-12-11T21:04:25.658Z,99.90
2022-12-11T21:07:01.157Z,99.90
2022-12-11T21:09:31.179Z,99.90
2022-12-11T21:12:01.641Z,99.90
2022-12-11T21:14:30.093Z,99.90
2022-12-11T21:16:58.319Z,99.90
2022-12-11T21:19:30.528Z,99.90
2022-12-11T21:22:00.451Z,99.90
2022-12-11T21:24:29.564Z,99.90
2022-12-11T21:26:58.208Z,99.90
2022-12-11T21:29:29.878Z,99.90
2022-12-11T21:31:58.036Z,99.90
2022-12-11T21:34:26.031Z,99.90
2022-12-11T21:36:56.923Z,99.90
2022-12-11T21:39:26.860Z,99.90
2022-12-11T21:41:54.670Z,99.90
2022-12-11T21:47:11.818Z,99.90
2022-12-11T21:49:41.455Z,99.90
2022-12-11T21:52:09.248Z,99.90
2022-12-11T21:54:39.387Z,99.90
2022-12-11T21:57:07.000Z,99.90
2022-12-11T21:59:36.612Z,99.90
2022-12-11T22:02:07.016Z,99.90
2022-12-11T22:04:34.822Z,99.90
2022-12-11T22:07:02.043Z,99.90
2022-12-11T22:09:29.322Z,99.90
2022-12-11T22:11:59.148Z,99.90
2022-12-11T22:14:26.996Z,99.90
2022-12-11T22:16:55.035Z,99.90
2022-12-11T22:19:27.817Z,99.90
2022-12-11T22:22:00.041Z,99.90
2022-12-11T22:24:27.334Z,99.90
2022-12-11T22:26:55.018Z,99.90
2022-12-11T22:29:22.308Z,99.90
2022-12-11T22:31:49.962Z,99.90
2022-12-11T22:34:17.227Z,99.90
2022-12-11T22:36:44.497Z,99.90
2022-12-11T22:39:11.693Z,99.90
2022-12-11T22:41:44.804Z,99.90
2022-12-11T22:44:21.759Z,99.90
2022-12-11T22:46:50.467Z,99.90
2022-12-11T22:49:19.855Z,99.90
2022-12-11T22:51:47.869Z,99.90
2022-12-11T22:54:15.463Z,99.90
2022-12-11T22:56:45.178Z,99.90
2022-12-11T22:59:14.672Z,99.90
2022-12-11T23:01:42.185Z,99.90
2022-12-11T23:04:14.044Z,99.90
2022-12-11T23:06:41.732Z,99.90
2022-12-11T23:09:09.517Z,99.90
2022-12-11T23:11:38.204Z,99.90
2022-12-11T23:14:07.637Z,99.90
2022-12-11T23:16:37.389Z,99.90
2022-12-11T23:19:05.335Z,99.90
2022-12-11T23:21:32.810Z,99.90
2022-12-11T23:24:00.749Z,99.90
2022-12-11T23:26:31.335Z,99.90
2022-12-11T23:29:02.474Z,99.90
2022-12-11T23:31:30.197Z,99.90
2022-12-11T23:33:58.098Z,99.90
2022-12-11T23:36:26.014Z,99.90
2022-12-11T23:38:55.987Z,99.90
2022-12-11T23:41:23.985Z,99.90
2022-12-11T23:43:52.026Z,99.90
2022-12-11T23:46:22.397Z,99.90
2022-12-11T23:48:53.764Z,99.90
2022-12-11T23:51:24.466Z,99.90
2022-12-11T23:53:54.705Z,99.90
2022-12-11T23:56:25.593Z,99.90
2022-12-11T23:58:55.743Z,99.90
